createdAt,value
2022-12-01T00:01:17.158Z,4.2
2022-12-01T00:15:19.348Z,4.5
2022-12-01T00:29:21.254Z,4.7
2022-12-01T00:43:24.732Z,4.9
2022-12-01T00:57:27.596Z,5
2022-12-01T01:11:30.467Z,5
2022-12-01T01:25:31.452Z,5.1
2022-12-01T01:39:32.259Z,5.1
2022-12-01T01:53:33.957Z,5.2
2022-12-01T02:07:35.226Z,5.3
2022-12-01T02:21:37.382Z,5.3
2022-12-01T02:35:39.453Z,5.3
2022-12-01T02:49:40.852Z,5.2
2022-12-01T03:03:41.706Z,5.1
2022-12-01T03:17:42.205Z,5.1
2022-12-01T03:31:45.400Z,5
2022-12-01T03:45:46.704Z,5
2022-12-01T03:59:47.487Z,4.9
2022-12-01T04:13:50.606Z,4.9
2022-12-01T04:27:52.587Z,4.9
2022-12-01T04:41:53.341Z,5
2022-12-01T04:55:55.052Z,4.9
2022-12-01T05:09:57.039Z,5
2022-12-01T05:23:58.340Z,5
2022-12-01T05:38:03.240Z,5
2022-12-01T05:52:02.588Z,5
2022-12-01T06:06:03.257Z,5.1
2022-12-01T06:20:05.225Z,5.1
2022-12-01T06:34:06.888Z,5.2
2022-12-01T06:48:08.899Z,5.2
2022-12-01T07:02:11.551Z,5.3
2022-12-01T07:16:14.805Z,5.3
2022-12-01T07:30:14.608Z,5.3
2022-12-01T07:44:17.995Z,5.3
2022-12-01T07:58:20.743Z,5.4
2022-12-01T08:12:21.315Z,5.4
2022-12-01T08:26:23.930Z,5.5
2022-12-01T08:40:25.565Z,5.6
2022-12-01T08:54:28.061Z,5.7
2022-12-01T09:08:30.320Z,5.7
2022-12-01T09:22:32.273Z,5.8
2022-12-01T09:36:35.426Z,5.8
2022-12-01T09:50:38.266Z,5.8
2022-12-01T10:04:40.834Z,6
2022-12-01T10:18:43.573Z,6.4
2022-12-01T10:32:47.552Z,6.7
2022-12-01T10:46:50.645Z,6.9
2022-12-01T11:00:59.436Z,7.3
2022-12-01T11:14:56.215Z,7.8
2022-12-01T11:28:56.612Z,8
2022-12-01T11:42:59.592Z,7.9
2022-12-01T11:57:25.774Z,7.7
2022-12-01T12:11:01.476Z,7.4
2022-12-01T12:25:03.106Z,7.3
2022-12-01T12:39:05.787Z,7.2
2022-12-01T12:53:06.389Z,7
2022-12-01T13:07:07.888Z,7
2022-12-01T13:21:09.681Z,7.2
2022-12-01T13:35:11.724Z,7.1
2022-12-01T13:49:13.242Z,7
2022-12-01T14:03:15.848Z,6.9
2022-12-01T14:17:19.142Z,6.9
2022-12-01T14:31:21.511Z,6.9
2022-12-01T14:45:22.450Z,6.9
2022-12-01T14:59:25.769Z,6.8
2022-12-01T15:13:26.137Z,6.6
2022-12-01T15:27:24.834Z,6.4
2022-12-01T15:41:29.298Z,6.1
2022-12-01T15:56:06.966Z,6
2022-12-01T16:09:51.630Z,5.9
2022-12-01T16:23:58.277Z,5.8
2022-12-01T16:38:04.516Z,5.7
2022-12-01T16:52:42.856Z,5.5
2022-12-01T17:06:19.699Z,5.5
2022-12-01T17:20:23.262Z,5.2
2022-12-01T17:34:40.683Z,5.1
2022-12-01T17:48:54.692Z,5
2022-12-01T18:02:57.793Z,4.5
2022-12-01T18:17:14.492Z,4.4
2022-12-01T18:31:23.047Z,4.1
2022-12-01T18:45:31.145Z,4
2022-12-01T18:59:39.837Z,4.3
2022-12-01T19:13:45.563Z,4.5
2022-12-01T19:28:00.438Z,4.6
2022-12-01T19:42:06.884Z,4.6
2022-12-01T19:56:20.240Z,4.7
2022-12-01T20:10:34.900Z,4.8
2022-12-01T20:24:45.072Z,4.8
2022-12-01T20:38:58.310Z,4.9
2022-12-01T20:53:01.290Z,5
2022-12-01T21:07:18.105Z,5.1
2022-12-01T21:21:28.597Z,5.2
2022-12-01T21:35:39.771Z,5.3
2022-12-01T21:49:53.828Z,5.3
2022-12-01T22:04:00.628Z,5.2
2022-12-01T22:18:00.574Z,5.1
2022-12-01T22:32:16.019Z,5.1
2022-12-01T22:46:24.376Z,5.1
2022-12-01T23:00:39.856Z,5
2022-12-01T23:14:52.430Z,5
2022-12-01T23:29:09.380Z,5
2022-12-01T23:43:21.898Z,5
2022-12-01T23:57:27.195Z,5
